Time;durP1;ratioP1;P1;durP2;ratioP2;P2;SDS_P1;SDS_P2;PMS_P1;PMS_P2;Temp;Humidity;BMP_temperature;BMP_pressure;BME280_temperature;BME280_humidity;BME280_pressure;Samples;Min_cycle;Max_cycle;Signal;HPM_P1;HPM_P2
2023/07/17 00:01:06;;;;;;;10.70;1.92;;;15.80;99.90;;;;;;4962052;28;20095;-66
2023/07/17 00:03:32;;;;;;;9.88;3.08;;;15.80;99.90;;;;;;4959393;28;20030;-66
2023/07/17 00:05:57;;;;;;;4.63;2.58;;;15.90;99.90;;;;;;4960719;28;20031;-66
2023/07/17 00:08:23;;;;;;;4.13;2.40;;;15.90;99.90;;;;;;4958383;28;20395;-66
2023/07/17 00:10:49;;;;;;;5.40;2.40;;;15.80;99.90;;;;;;4957775;28;20031;-66
2023/07/17 00:13:15;;;;;;;9.77;2.75;;;15.90;99.90;;;;;;4959307;28;20038;-68
2023/07/17 00:15:40;;;;;;;5.28;2.40;;;16.00;99.90;;;;;;4959825;28;20031;-67
2023/07/17 00:18:06;;;;;;;9.77;2.55;;;16.00;99.90;;;;;;4961668;28;20069;-66
2023/07/17 00:20:32;;;;;;;9.55;2.03;;;16.10;99.90;;;;;;4960910;28;20026;-68
2023/07/17 00:22:57;;;;;;;6.57;2.45;;;16.10;99.90;;;;;;4963000;28;20058;-66
2023/07/17 00:25:23;;;;;;;6.95;2.03;;;16.10;99.90;;;;;;4968026;28;20054;-66
2023/07/17 00:27:49;;;;;;;7.25;2.30;;;16.20;99.90;;;;;;4971731;28;20027;-66
2023/07/17 00:30:15;;;;;;;5.63;2.75;;;16.10;99.90;;;;;;4953128;28;20038;-65
2023/07/17 00:32:40;;;;;;;4.03;2.47;;;16.20;99.90;;;;;;4936104;28;20039;-66
2023/07/17 00:35:07;;;;;;;3.13;1.88;;;16.20;99.90;;;;;;4971663;28;20045;-64
2023/07/17 00:37:33;;;;;;;4.80;2.65;;;16.20;99.90;;;;;;4972043;28;20074;-66
2023/07/17 00:39:58;;;;;;;3.75;2.13;;;16.30;99.90;;;;;;4972183;28;20024;-67
2023/07/17 00:42:24;;;;;;;7.28;2.70;;;16.40;99.90;;;;;;4972118;28;20031;-66
2023/07/17 00:44:49;;;;;;;6.70;2.30;;;16.40;99.90;;;;;;4938318;28;20066;-66
2023/07/17 00:47:15;;;;;;;4.75;2.20;;;16.50;99.90;;;;;;4971071;28;20019;-66
2023/07/17 00:49:41;;;;;;;6.47;2.28;;;16.60;99.90;;;;;;4967556;28;20027;-67
2023/07/17 00:52:09;;;;;;;8.10;2.58;;;16.60;99.90;;;;;;4962843;28;20042;-65
2023/07/17 00:54:35;;;;;;;7.45;2.47;;;16.70;99.90;;;;;;4958467;28;20035;-67
2023/07/17 00:57:06;;;;;;;6.32;2.45;;;16.80;99.40;;;;;;4963454;28;20030;-64
2023/07/17 00:59:32;;;;;;;5.22;2.55;;;16.80;99.90;;;;;;4960483;28;20027;-65
2023/07/17 01:01:58;;;;;;;5.18;2.90;;;16.70;99.90;;;;;;4963759;28;20077;-65
2023/07/17 01:04:24;;;;;;;6.20;2.58;;;16.70;99.90;;;;;;4963703;28;20455;-66
2023/07/17 01:06:49;;;;;;;9.02;3.40;;;16.70;99.90;;;;;;4959154;28;20061;-67
2023/07/17 01:09:16;;;;;;;7.35;2.88;;;16.70;99.90;;;;;;4960527;28;20043;-65
2023/07/17 01:11:42;;;;;;;11.55;2.53;;;16.60;99.90;;;;;;4953367;28;20073;-65
2023/07/17 01:14:17;;;;;;;4.45;2.42;;;16.60;99.90;;;;;;4970598;28;20026;-66
2023/07/17 01:16:48;;;;;;;7.15;3.38;;;16.70;99.90;;;;;;4970421;28;20019;-66
2023/07/17 01:19:15;;;;;;;6.35;2.47;;;16.70;99.90;;;;;;4968386;28;20031;-66
2023/07/17 01:21:55;;;;;;;7.68;2.17;;;16.70;99.90;;;;;;4971330;28;20033;-65
2023/07/17 01:24:21;;;;;;;4.82;2.47;;;16.80;99.90;;;;;;4970455;28;20123;-67
2023/07/17 01:26:47;;;;;;;6.38;2.53;;;16.90;99.70;;;;;;4971094;28;20101;-66
2023/07/17 01:29:13;;;;;;;3.65;2.08;;;16.90;99.70;;;;;;4969763;28;20022;-65
2023/07/17 01:31:39;;;;;;;9.18;2.55;;;17.00;98.80;;;;;;4971145;28;20026;-66
2023/07/17 01:34:05;;;;;;;8.43;2.72;;;17.00;98.40;;;;;;4968728;28;20026;-68
2023/07/17 01:36:31;;;;;;;6.18;2.47;;;17.10;98.30;;;;;;4970137;28;20403;-65
2023/07/17 01:38:56;;;;;;;6.43;2.40;;;17.10;99.30;;;;;;4971937;28;20023;-65
2023/07/17 01:41:23;;;;;;;18.67;3.53;;;17.10;99.50;;;;;;4971618;28;21180;-66
2023/07/17 01:43:49;;;;;;;13.20;2.88;;;17.10;99.30;;;;;;4970303;28;20023;-66
2023/07/17 01:46:15;;;;;;;13.85;3.15;;;17.10;99.70;;;;;;4970051;28;20495;-65
2023/07/17 01:48:40;;;;;;;7.07;2.42;;;17.10;99.50;;;;;;4971471;28;20023;-66
2023/07/17 01:51:06;;;;;;;5.45;2.53;;;17.10;99.60;;;;;;4972740;28;20394;-67
2023/07/17 01:53:33;;;;;;;5.65;2.50;;;17.10;99.90;;;;;;4956977;28;20039;-66
2023/07/17 01:56:00;;;;;;;5.07;2.15;;;17.00;99.90;;;;;;4972431;28;20049;-66
2023/07/17 01:58:26;;;;;;;7.68;2.63;;;17.00;99.90;;;;;;4971705;28;20027;-65
2023/07/17 02:00:55;;;;;;;8.77;2.97;;;17.00;99.90;;;;;;4971254;28;20027;-67
2023/07/17 02:03:22;;;;;;;5.65;2.80;;;17.00;99.90;;;;;;4971901;28;20051;-67
2023/07/17 02:05:50;;;;;;;7.50;2.83;;;16.90;99.90;;;;;;4971050;28;20047;-66
2023/07/17 02:08:16;;;;;;;4.70;2.42;;;16.90;99.90;;;;;;4953336;28;20435;-66
2023/07/17 02:10:43;;;;;;;4.78;2.78;;;16.90;99.90;;;;;;4972390;28;20423;-66
2023/07/17 02:13:08;;;;;;;5.63;2.45;;;16.80;99.90;;;;;;4970485;28;20492;-66
2023/07/17 02:15:34;;;;;;;8.98;2.90;;;16.80;99.90;;;;;;4971018;28;20037;-66
2023/07/17 02:18:00;;;;;;;7.72;2.92;;;16.80;99.90;;;;;;4969355;28;20476;-65
2023/07/17 02:20:25;;;;;;;7.50;3.13;;;16.70;99.90;;;;;;4969789;28;20034;-67
2023/07/17 02:22:51;;;;;;;8.77;3.30;;;16.60;99.90;;;;;;4970366;28;20101;-66
2023/07/17 02:25:17;;;;;;;9.15;2.67;;;16.50;99.90;;;;;;4972036;28;20030;-66
2023/07/17 02:27:43;;;;;;;6.88;2.70;;;16.40;99.90;;;;;;4969887;28;20540;-66
2023/07/17 02:30:09;;;;;;;17.58;3.33;;;16.30;99.90;;;;;;4967173;28;20134;-67
2023/07/17 02:32:34;;;;;;;7.90;2.67;;;16.30;99.90;;;;;;4967630;28;20074;-66
2023/07/17 02:35:00;;;;;;;7.70;2.50;;;16.20;99.90;;;;;;4968993;28;20054;-66
2023/07/17 02:37:25;;;;;;;5.50;2.90;;;16.20;99.90;;;;;;4969030;28;21903;-66
2023/07/17 02:39:52;;;;;;;8.23;2.65;;;16.10;99.90;;;;;;4970673;28;20035;-65
2023/07/17 02:42:17;;;;;;;8.77;2.70;;;16.10;99.90;;;;;;4966824;28;20526;-66
2023/07/17 02:44:47;;;;;;;5.18;2.67;;;16.10;99.90;;;;;;4962333;28;20058;-66
2023/07/17 02:47:12;;;;;;;5.68;2.63;;;16.00;99.90;;;;;;4970169;28;20103;-65
2023/07/17 02:49:38;;;;;;;6.88;2.78;;;15.90;99.90;;;;;;4967971;28;20039;-66
2023/07/17 02:52:05;;;;;;;7.47;3.67;;;15.90;99.90;;;;;;4971046;28;20066;-63
2023/07/17 02:54:31;;;;;;;4.40;3.05;;;15.80;99.90;;;;;;4959602;28;20114;-66
2023/07/17 02:56:56;;;;;;;7.65;3.30;;;15.70;99.90;;;;;;4968474;28;20122;-66
2023/07/17 02:59:22;;;;;;;9.32;3.22;;;15.60;99.90;;;;;;4970575;28;20110;-66
2023/07/17 03:01:48;;;;;;;7.22;2.67;;;15.50;99.90;;;;;;4961385;28;20035;-66
2023/07/17 03:04:14;;;;;;;8.98;2.72;;;15.40;99.90;;;;;;4968867;28;20027;-65
2023/07/17 03:06:39;;;;;;;9.93;3.40;;;15.30;99.90;;;;;;4968522;28;20029;-66
2023/07/17 03:09:05;;;;;;;9.93;3.22;;;15.20;99.90;;;;;;4968853;28;20031;-66
2023/07/17 03:11:31;;;;;;;5.93;3.58;;;15.10;99.90;;;;;;4969906;28;20030;-66
2023/07/17 03:13:57;;;;;;;5.20;2.40;;;15.00;99.90;;;;;;4969308;28;20034;-65
2023/07/17 03:16:23;;;;;;;14.50;3.08;;;15.00;99.90;;;;;;4969726;28;20637;-66
2023/07/17 03:18:48;;;;;;;12.00;2.85;;;15.10;99.90;;;;;;4965520;28;20035;-67
2023/07/17 03:21:14;;;;;;;11.10;3.47;;;15.20;99.90;;;;;;4968435;28;20035;-66
2023/07/17 03:23:39;;;;;;;6.38;3.30;;;15.20;99.90;;;;;;4970200;28;20077;-65
2023/07/17 03:26:05;;;;;;;8.00;3.70;;;15.10;99.90;;;;;;4970799;28;20031;-65
2023/07/17 03:28:30;;;;;;;9.98;3.60;;;15.10;99.90;;;;;;4968225;28;20030;-66
2023/07/17 03:30:56;;;;;;;7.20;3.25;;;15.00;99.90;;;;;;4966941;28;20023;-68
2023/07/17 03:33:22;;;;;;;7.60;3.10;;;14.90;99.90;;;;;;4962908;28;20034;-65
2023/07/17 03:35:47;;;;;;;7.43;3.05;;;14.80;99.90;;;;;;5004551;28;20069;-67
2023/07/17 03:38:13;;;;;;;6.18;3.17;;;14.80;99.90;;;;;;5005880;28;20149;-64
2023/07/17 03:40:38;;;;;;;7.50;2.92;;;14.70;99.90;;;;;;5001784;28;20034;-66
2023/07/17 03:43:04;;;;;;;15.18;3.70;;;14.70;99.90;;;;;;4997575;28;20071;-66
2023/07/17 03:45:29;;;;;;;7.15;2.92;;;14.70;99.90;;;;;;4999824;28;20080;-66
2023/07/17 03:47:55;;;;;;;8.00;2.97;;;14.70;99.90;;;;;;4999235;28;20034;-67
2023/07/17 03:50:21;;;;;;;5.85;3.05;;;14.70;99.90;;;;;;5004350;28;20112;-66
2023/07/17 03:52:46;;;;;;;9.52;3.45;;;14.80;99.90;;;;;;4974616;28;20065;-66
2023/07/17 03:55:12;;;;;;;4.30;2.78;;;14.70;99.90;;;;;;4993790;28;20046;-65
2023/07/17 03:57:37;;;;;;;6.85;2.70;;;14.70;99.90;;;;;;5002054;28;20449;-65
2023/07/17 04:00:04;;;;;;;8.57;3.20;;;14.70;99.90;;;;;;4998030;28;20166;-64
2023/07/17 04:02:29;;;;;;;7.32;3.58;;;14.60;99.90;;;;;;5005193;28;20458;-66
2023/07/17 04:04:56;;;;;;;6.70;3.45;;;14.70;99.90;;;;;;4988869;28;20046;-67
2023/07/17 04:07:21;;;;;;;11.07;3.33;;;14.70;99.90;;;;;;4966252;28;20019;-66
2023/07/17 04:09:47;;;;;;;10.32;3.42;;;14.70;99.90;;;;;;4958469;28;20019;-66
2023/07/17 04:12:13;;;;;;;7.00;2.92;;;14.70;99.90;;;;;;4973615;28;20031;-66
2023/07/17 04:14:38;;;;;;;12.45;3.80;;;14.80;99.90;;;;;;4972847;28;20038;-66
2023/07/17 04:17:05;;;;;;;8.00;3.42;;;14.80;99.90;;;;;;4973563;28;20532;-66
2023/07/17 04:19:31;;;;;;;6.53;2.80;;;14.90;99.90;;;;;;4969573;28;20039;-67
2023/07/17 04:21:56;;;;;;;9.48;3.50;;;14.90;99.90;;;;;;4972247;28;20053;-66
2023/07/17 04:24:25;;;;;;;8.35;2.92;;;15.00;99.90;;;;;;4972428;28;20499;-66
2023/07/17 04:26:52;;;;;;;7.18;3.03;;;15.10;99.90;;;;;;4973018;28;20106;-66
2023/07/17 04:29:21;;;;;;;5.95;2.72;;;15.40;99.90;;;;;;4971881;28;20030;-66
2023/07/17 04:31:47;;;;;;;6.07;2.88;;;15.70;99.90;;;;;;4953130;28;20026;-66
2023/07/17 04:34:12;;;;;;;6.90;3.45;;;15.90;99.90;;;;;;4960978;28;20404;-65
2023/07/17 04:36:38;;;;;;;8.98;3.70;;;16.20;99.90;;;;;;4974283;28;20084;-66
2023/07/17 04:39:04;;;;;;;6.72;2.75;;;16.50;99.90;;;;;;4972787;28;20534;-66
2023/07/17 04:41:30;;;;;;;5.30;2.55;;;16.90;99.90;;;;;;4972369;28;20078;-65
2023/07/17 04:43:56;;;;;;;5.57;2.60;;;17.80;99.90;;;;;;4972509;28;20031;-67
2023/07/17 04:46:21;;;;;;;6.00;2.55;;;18.40;99.90;;;;;;4972846;28;20078;-66
2023/07/17 04:48:47;;;;;;;6.15;3.08;;;18.50;99.90;;;;;;4971277;28;20421;-66
2023/07/17 04:51:12;;;;;;;5.10;2.80;;;18.60;99.90;;;;;;4972034;28;20129;-65
2023/07/17 04:53:38;;;;;;;8.43;2.72;;;18.80;99.90;;;;;;4956427;28;20487;-66
2023/07/17 04:56:04;;;;;;;5.70;2.95;;;19.20;99.90;;;;;;4972469;28;20053;-66
2023/07/17 04:58:32;;;;;;;3.47;2.20;;;20.00;99.90;;;;;;4970992;28;20027;-67
2023/07/17 05:01:02;;;;;;;5.18;3.08;;;20.60;99.90;;;;;;4958329;28;20050;-66
2023/07/17 05:03:27;;;;;;;9.27;2.28;;;21.30;99.90;;;;;;4982410;28;20034;-67
2023/07/17 05:05:54;;;;;;;4.40;2.75;;;22.10;98.30;;;;;;4971746;28;20035;-66
2023/07/17 05:08:20;;;;;;;4.55;2.45;;;22.70;96.60;;;;;;4985038;28;20018;-65
2023/07/17 05:10:59;;;;;;;5.32;2.55;;;23.90;95.10;;;;;;4972125;28;20054;-67
2023/07/17 05:13:26;;;;;;;5.50;2.30;;;25.40;92.20;;;;;;4954533;28;20058;-66
2023/07/17 05:15:51;;;;;;;5.72;2.03;;;26.20;90.50;;;;;;4962708;28;20022;-67
2023/07/17 05:18:18;;;;;;;5.97;2.53;;;27.20;85.20;;;;;;4957567;28;20078;-66
2023/07/17 05:20:45;;;;;;;4.35;2.00;;;27.30;85.90;;;;;;4968595;28;20031;-67
2023/07/17 05:23:11;;;;;;;5.72;2.08;;;26.90;83.50;;;;;;4958435;28;20033;-67
2023/07/17 05:25:36;;;;;;;5.80;2.35;;;26.40;83.70;;;;;;4970227;28;20023;-68
2023/07/17 05:28:03;;;;;;;3.58;2.42;;;26.50;84.60;;;;;;4972133;28;20026;-66
2023/07/17 05:30:31;;;;;;;5.30;2.20;;;26.70;81.80;;;;;;4965711;28;20114;-67
2023/07/17 05:32:57;;;;;;;4.70;2.03;;;27.90;82.70;;;;;;4969467;28;20106;-68
2023/07/17 05:35:22;;;;;;;5.78;2.80;;;28.40;80.80;;;;;;4970668;28;20113;-67
2023/07/17 05:37:48;;;;;;;3.83;2.45;;;27.90;79.80;;;;;;4969704;28;20034;-68
2023/07/17 05:40:14;;;;;;;5.28;2.70;;;28.70;79.30;;;;;;4970989;28;20133;-65
2023/07/17 05:42:39;;;;;;;4.32;2.10;;;29.90;76.70;;;;;;4972121;28;20034;-67
2023/07/17 05:45:05;;;;;;;5.13;2.30;;;29.40;76.90;;;;;;4970310;28;20031;-67
2023/07/17 05:47:31;;;;;;;4.80;2.38;;;29.20;77.50;;;;;;4971891;28;20035;-67
2023/07/17 05:49:56;;;;;;;5.35;2.40;;;30.00;75.00;;;;;;4967106;28;20461;-67
2023/07/17 05:52:22;;;;;;;4.53;2.50;;;30.40;73.80;;;;;;4971507;28;20043;-67
2023/07/17 05:54:48;;;;;;;3.25;2.15;;;29.80;73.50;;;;;;4955197;28;20082;-68
2023/07/17 05:57:13;;;;;;;5.93;2.45;;;30.20;74.10;;;;;;4968722;28;21221;-68
2023/07/17 05:59:39;;;;;;;5.50;2.55;;;29.00;73.40;;;;;;4970982;28;20046;-67
2023/07/17 06:02:05;;;;;;;2.95;2.03;;;27.50;76.50;;;;;;4971388;28;20034;-67
2023/07/17 06:04:31;;;;;;;3.78;2.33;;;26.20;77.20;;;;;;4964582;28;20054;-67
2023/07/17 06:06:56;;;;;;;4.38;2.17;;;24.90;80.30;;;;;;4970246;28;20054;-66
2023/07/17 06:09:22;;;;;;;6.70;2.05;;;24.30;84.10;;;;;;4970296;28;20022;-66
2023/07/17 06:11:47;;;;;;;5.88;2.28;;;23.70;85.30;;;;;;4959617;28;20037;-67
2023/07/17 06:14:13;;;;;;;4.28;2.05;;;23.40;88.30;;;;;;4971541;28;20105;-67
2023/07/17 06:16:38;;;;;;;5.97;1.90;;;23.60;87.80;;;;;;4969037;28;20034;-66
2023/07/17 06:19:04;;;;;;;4.05;1.95;;;23.40;86.60;;;;;;4970323;28;20046;-67
2023/07/17 06:21:29;;;;;;;4.65;1.50;;;23.80;86.60;;;;;;4967776;28;20520;-67
2023/07/17 06:23:55;;;;;;;2.80;1.50;;;23.90;84.50;;;;;;4971243;28;20065;-65
2023/07/17 06:26:20;;;;;;;4.68;1.58;;;24.00;85.40;;;;;;4971734;28;20027;-66
2023/07/17 06:28:47;;;;;;;4.50;1.48;;;23.60;84.00;;;;;;4968152;28;20039;-67
2023/07/17 06:31:13;;;;;;;3.90;1.90;;;22.90;86.00;;;;;;4968229;28;20019;-67
2023/07/17 06:33:39;;;;;;;5.15;1.95;;;22.40;88.00;;;;;;4970009;28;20105;-66
2023/07/17 06:36:04;;;;;;;4.32;1.70;;;23.00;87.30;;;;;;4970718;28;20027;-66
2023/07/17 06:38:30;;;;;;;7.25;1.80;;;23.60;86.10;;;;;;4969533;28;20022;-67
2023/07/17 06:40:56;;;;;;;4.57;1.73;;;24.20;84.30;;;;;;4969020;28;20031;-67
2023/07/17 06:43:21;;;;;;;4.30;1.83;;;25.20;81.70;;;;;;4957365;28;20554;-66
2023/07/17 06:45:47;;;;;;;2.88;1.65;;;25.70;80.10;;;;;;4970423;28;20455;-67
2023/07/17 06:48:13;;;;;;;4.28;1.85;;;25.80;78.20;;;;;;4968279;28;20030;-64
2023/07/17 06:50:39;;;;;;;6.85;2.00;;;25.10;78.30;;;;;;4968297;28;20114;-66
2023/07/17 06:53:04;;;;;;;6.05;2.15;;;24.00;79.70;;;;;;4968404;28;20035;-65
2023/07/17 06:55:30;;;;;;;5.50;1.90;;;23.20;82.50;;;;;;4953730;28;20051;-66
2023/07/17 06:57:55;;;;;;;5.93;2.10;;;22.90;84.40;;;;;;4969714;28;20038;-66
2023/07/17 07:00:21;;;;;;;7.03;2.33;;;23.00;86.50;;;;;;4969775;28;20531;-67
2023/07/17 07:02:46;;;;;;;6.15;2.15;;;23.60;84.10;;;;;;4969090;28;20027;-67
2023/07/17 07:05:12;;;;;;;3.40;1.75;;;24.50;82.40;;;;;;4966553;28;20041;-67
2023/07/17 07:07:38;;;;;;;5.10;2.17;;;25.50;79.60;;;;;;4972123;28;20033;-69
2023/07/17 07:10:04;;;;;;;5.38;2.08;;;27.10;77.30;;;;;;4968121;28;20081;-68
2023/07/17 07:12:30;;;;;;;3.53;1.75;;;27.70;74.00;;;;;;4967486;28;20420;-68
2023/07/17 07:14:55;;;;;;;5.80;1.83;;;28.80;71.10;;;;;;4968101;28;20033;-66
2023/07/17 07:17:21;;;;;;;6.55;2.08;;;29.30;69.90;;;;;;4969804;28;20109;-68
2023/07/17 07:19:46;;;;;;;4.00;1.83;;;29.40;69.50;;;;;;4967971;28;20033;-68
2023/07/17 07:22:12;;;;;;;3.25;1.65;;;29.40;70.80;;;;;;4971115;28;20555;-68
2023/07/17 07:24:41;;;;;;;6.82;2.20;;;29.00;69.40;;;;;;4970718;28;20023;-67
2023/07/17 07:27:07;;;;;;;6.28;2.40;;;29.10;69.40;;;;;;4953577;28;20077;-67
2023/07/17 07:29:33;;;;;;;4.60;1.90;;;29.70;70.60;;;;;;4969545;28;20027;-68
2023/07/17 07:31:58;;;;;;;7.53;2.53;;;30.40;67.80;;;;;;4969601;28;20035;-69
2023/07/17 07:34:24;;;;;;;7.78;2.30;;;30.40;65.90;;;;;;4968404;28;20063;-68
2023/07/17 07:36:49;;;;;;;3.13;2.13;;;30.50;66.40;;;;;;4970314;28;20055;-67
2023/07/17 07:39:15;;;;;;;3.30;1.88;;;30.50;64.90;;;;;;4968671;28;20463;-68
2023/07/17 07:41:41;;;;;;;5.93;2.55;;;30.20;64.70;;;;;;4967936;28;20031;-68
2023/07/17 07:44:07;;;;;;;5.28;2.42;;;29.70;64.90;;;;;;4971023;28;20066;-67
2023/07/17 07:46:32;;;;;;;5.70;2.33;;;30.00;65.30;;;;;;4970519;28;20033;-67
2023/07/17 07:48:58;;;;;;;6.18;2.42;;;30.80;63.10;;;;;;4957141;28;20027;-68
2023/07/17 07:51:23;;;;;;;3.78;2.20;;;30.20;64.30;;;;;;4971408;28;20491;-68
2023/07/17 07:53:49;;;;;;;9.82;2.33;;;30.40;64.30;;;;;;4977191;28;20023;-67
2023/07/17 07:56:15;;;;;;;4.53;2.17;;;30.60;63.20;;;;;;4940413;28;20042;-64
2023/07/17 07:58:40;;;;;;;4.82;2.15;;;30.60;63.40;;;;;;4971548;28;20566;-67
2023/07/17 08:01:06;;;;;;;4.97;2.60;;;29.90;64.00;;;;;;4972055;28;20031;-68
2023/07/17 08:03:34;;;;;;;4.50;2.60;;;30.50;63.60;;;;;;4971052;28;20030;-67
2023/07/17 08:05:59;;;;;;;4.95;2.90;;;30.70;63.10;;;;;;4971899;28;20059;-67
2023/07/17 08:08:25;;;;;;;3.15;2.10;;;30.20;62.70;;;;;;4973486;28;20495;-67
2023/07/17 08:10:53;;;;;;;4.95;2.38;;;29.70;63.40;;;;;;4972688;28;20042;-68
2023/07/17 08:13:19;;;;;;;6.93;2.20;;;29.60;64.20;;;;;;4968107;28;20038;-68
2023/07/17 08:15:45;;;;;;;5.80;2.83;;;29.00;64.20;;;;;;4970957;28;20026;-67
2023/07/17 08:18:11;;;;;;;7.53;2.63;;;28.70;65.20;;;;;;4973496;28;20117;-67
2023/07/17 08:20:37;;;;;;;7.43;2.47;;;29.80;63.90;;;;;;4958025;28;20122;-69
2023/07/17 08:23:03;;;;;;;3.97;2.17;;;29.80;64.40;;;;;;4971237;28;20174;-68
2023/07/17 08:25:28;;;;;;;3.95;2.85;;;29.40;65.20;;;;;;4971556;28;20109;-68
2023/07/17 08:27:54;;;;;;;4.97;2.38;;;30.80;64.00;;;;;;4971439;28;20494;-67
2023/07/17 08:30:20;;;;;;;4.15;2.53;;;30.60;62.40;;;;;;4935635;28;1094551;-66
2023/07/17 08:32:46;;;;;;;6.18;3.03;;;30.30;62.50;;;;;;4972627;28;20026;-68
2023/07/17 08:35:12;;;;;;;4.82;2.72;;;29.90;63.30;;;;;;4969772;28;20101;-69
2023/07/17 08:37:37;;;;;;;4.78;2.25;;;30.80;63.20;;;;;;4973064;28;20031;-68
2023/07/17 08:40:04;;;;;;;5.60;2.47;;;30.10;62.10;;;;;;4955822;28;20064;-68
2023/07/17 08:42:29;;;;;;;3.53;2.20;;;29.50;64.30;;;;;;4970491;28;20041;-67
2023/07/17 08:44:57;;;;;;;7.28;2.10;;;30.50;64.20;;;;;;4974975;28;20011;-68
2023/07/17 08:47:23;;;;;;;3.83;2.53;;;30.80;61.60;;;;;;4964129;28;20109;-66
2023/07/17 08:49:50;;;;;;;5.00;2.38;;;30.10;61.70;;;;;;4969512;28;20174;-66
2023/07/17 08:52:17;;;;;;;4.45;2.25;;;31.00;63.80;;;;;;4973103;28;20027;-64
2023/07/17 08:54:42;;;;;;;4.65;2.05;;;30.70;60.30;;;;;;4964573;28;20033;-67
2023/07/17 08:57:09;;;;;;;22.63;2.90;;;30.30;61.00;;;;;;4958851;28;20058;-69
2023/07/17 08:59:36;;;;;;;8.38;2.35;;;30.30;61.10;;;;;;4973024;28;20030;-68
2023/07/17 09:02:03;;;;;;;6.63;2.67;;;30.00;61.00;;;;;;4971970;28;20143;-68
2023/07/17 09:04:31;;;;;;;3.63;2.10;;;29.80;62.00;;;;;;4971215;28;20077;-68
2023/07/17 09:06:57;;;;;;;7.30;2.70;;;29.40;61.30;;;;;;4973042;28;20037;-66
2023/07/17 09:09:22;;;;;;;4.03;2.30;;;29.40;64.30;;;;;;4945678;28;20035;-67
2023/07/17 09:12:09;;;;;;;3.67;2.15;;;29.30;64.20;;;;;;4964544;28;20058;-67
2023/07/17 09:14:35;;;;;;;6.70;2.72;;;28.90;62.70;;;;;;4970464;28;20557;-67
2023/07/17 09:17:07;;;;;;;4.07;2.20;;;27.60;63.30;;;;;;4971001;28;20042;-67
2023/07/17 09:19:34;;;;;;;5.33;2.70;;;27.10;66.20;;;;;;4969196;28;20148;-68
2023/07/17 09:22:05;;;;;;;3.90;2.35;;;27.50;67.20;;;;;;4961371;28;20031;-67
2023/07/17 09:24:36;;;;;;;7.18;2.63;;;27.60;64.70;;;;;;4972178;28;20018;-67
2023/07/17 09:27:05;;;;;;;7.70;2.63;;;27.70;63.90;;;;;;4965263;28;20074;-66
2023/07/17 09:29:31;;;;;;;6.38;2.65;;;27.80;65.60;;;;;;4971375;28;20026;-68
2023/07/17 09:32:12;;;;;;;6.07;2.17;;;27.90;64.20;;;;;;4971730;28;20110;-66
2023/07/17 09:34:38;;;;;;;4.30;1.90;;;27.80;64.50;;;;;;4969598;28;20027;-68
2023/07/17 09:37:09;;;;;;;4.60;2.33;;;27.20;65.20;;;;;;4954973;28;20078;-67
2023/07/17 09:39:36;;;;;;;4.30;2.30;;;27.10;65.80;;;;;;4967117;28;20106;-68
2023/07/17 09:42:02;;;;;;;4.88;2.33;;;28.20;65.00;;;;;;4968610;28;20069;-67
2023/07/17 09:44:29;;;;;;;4.47;2.67;;;28.90;63.00;;;;;;4972512;28;20026;-67
2023/07/17 09:46:54;;;;;;;5.60;2.75;;;29.60;62.70;;;;;;4972294;28;20073;-67
2023/07/17 09:49:20;;;;;;;4.78;2.47;;;29.40;62.70;;;;;;4968124;28;20054;-67
2023/07/17 09:51:46;;;;;;;3.95;2.38;;;30.50;62.80;;;;;;4971042;28;20030;-67
2023/07/17 09:54:11;;;;;;;4.93;2.45;;;30.50;61.00;;;;;;4972645;28;20030;-67
2023/07/17 09:56:40;;;;;;;6.88;2.58;;;30.20;60.50;;;;;;4938185;28;20045;-68
2023/07/17 09:59:14;;;;;;;5.90;2.60;;;30.10;61.70;;;;;;4971559;28;20034;-68
2023/07/17 10:01:45;;;;;;;5.35;2.33;;;30.30;61.10;;;;;;4970533;28;20057;-68
2023/07/17 10:04:13;;;;;;;4.18;2.20;;;31.10;63.50;;;;;;4971211;28;20023;-67
2023/07/17 10:06:42;;;;;;;10.15;2.38;;;31.10;59.60;;;;;;4970505;28;20030;-67
2023/07/17 10:09:11;;;;;;;4.28;2.30;;;31.10;59.10;;;;;;4971964;28;20019;-67
2023/07/17 10:11:36;;;;;;;6.28;2.55;;;29.80;60.80;;;;;;4970888;28;20567;-68
2023/07/17 10:14:02;;;;;;;6.55;2.47;;;29.50;62.10;;;;;;4972439;28;20110;-68
2023/07/17 10:16:28;;;;;;;4.95;2.53;;;28.00;63.00;;;;;;4971342;28;20026;-66
2023/07/17 10:18:56;;;;;;;3.58;2.15;;;27.90;62.80;;;;;;4967527;28;20484;-67
2023/07/17 10:21:22;;;;;;;5.82;2.80;;;28.00;62.30;;;;;;4968971;28;20042;-66
2023/07/17 10:23:50;;;;;;;3.88;2.42;;;28.10;64.70;;;;;;4969632;28;20027;-66
2023/07/17 10:26:20;;;;;;;4.10;2.33;;;28.50;62.80;;;;;;4971534;28;20030;-66
2023/07/17 10:28:52;;;;;;;8.13;2.15;;;28.80;63.10;;;;;;4971844;28;20027;-67
2023/07/17 10:31:25;;;;;;;4.18;2.90;;;28.90;63.60;;;;;;4958128;28;20023;-66
2023/07/17 10:33:51;;;;;;;4.55;2.00;;;28.70;62.50;;;;;;4970133;28;20022;-68
2023/07/17 10:36:18;;;;;;;4.55;2.58;;;28.80;63.40;;;;;;4959224;28;20392;-64
2023/07/17 10:38:51;;;;;;;3.70;2.15;;;28.50;63.30;;;;;;4957350;28;20384;-67
2023/07/17 10:41:16;;;;;;;;;;;27.60;63.10;;;;;;4952852;28;20045;-66
2023/07/17 10:44:03;;;;;;;6.10;2.92;;;26.70;63.50;;;;;;4962205;28;19984;-67
2023/07/17 10:46:32;;;;;;;4.07;2.65;;;27.20;64.70;;;;;;4964164;28;20496;-66
2023/07/17 10:49:06;;;;;;;3.58;2.40;;;27.50;66.60;;;;;;4961560;28;20152;-67
2023/07/17 10:51:32;;;;;;;4.32;2.20;;;27.70;65.00;;;;;;4951138;28;20041;-66
2023/07/17 10:53:57;;;;;;;8.40;2.63;;;27.30;65.00;;;;;;4968471;28;20030;-65
2023/07/17 10:56:23;;;;;;;3.28;2.17;;;27.10;64.50;;;;;;4956462;28;20054;-67
2023/07/17 10:58:50;;;;;;;8.25;2.97;;;27.10;65.30;;;;;;4969257;28;20053;-66
2023/07/17 11:01:16;;;;;;;5.50;2.30;;;26.90;66.90;;;;;;4965636;28;20109;-67
2023/07/17 11:03:57;;;;;;;5.63;2.90;;;27.60;65.40;;;;;;4964432;28;20054;-67
2023/07/17 11:06:26;;;;;;;4.40;2.58;;;27.40;64.50;;;;;;4962683;28;20031;-66
2023/07/17 11:08:52;;;;;;;3.72;2.42;;;26.90;64.70;;;;;;4971788;28;20015;-66
2023/07/17 11:11:19;;;;;;;5.30;2.60;;;27.00;65.80;;;;;;4970183;28;20484;-66
2023/07/17 11:13:45;;;;;;;7.40;2.67;;;27.20;65.00;;;;;;4968711;28;20030;-67
2023/07/17 11:16:11;;;;;;;5.35;2.58;;;26.90;66.00;;;;;;4972814;28;20053;-67
2023/07/17 11:18:51;;;;;;;4.45;2.35;;;26.90;66.20;;;;;;4968206;28;20026;-68
2023/07/17 11:21:19;;;;;;;5.97;3.22;;;27.60;65.20;;;;;;4964394;28;20038;-66
2023/07/17 11:23:50;;;;;;;7.72;2.80;;;28.10;65.40;;;;;;4966416;28;20495;-66
2023/07/17 11:26:26;;;;;;;4.70;2.67;;;28.40;64.40;;;;;;4971367;28;20073;-67
2023/07/17 11:28:57;;;;;;;5.78;3.38;;;28.80;63.90;;;;;;4964719;28;20023;-66
2023/07/17 11:31:23;;;;;;;7.65;3.28;;;28.40;64.00;;;;;;4951092;28;20424;-67
2023/07/17 11:33:59;;;;;;;7.13;2.88;;;28.10;63.30;;;;;;4965340;28;20039;-67
2023/07/17 11:36:32;;;;;;;7.45;3.85;;;27.80;65.50;;;;;;4965634;28;20026;-66
2023/07/17 11:39:16;;;;;;;5.35;2.55;;;27.30;66.30;;;;;;4967369;28;20023;-67
2023/07/17 11:41:42;;;;;;;4.03;2.28;;;27.40;64.80;;;;;;4965019;28;20027;-67
2023/07/17 11:44:07;;;;;;;6.57;2.72;;;27.30;67.00;;;;;;4973958;28;20539;-67
2023/07/17 11:46:33;;;;;;;5.07;2.38;;;27.10;64.50;;;;;;4976015;28;20027;-67
2023/07/17 11:48:59;;;;;;;4.28;2.10;;;27.40;65.60;;;;;;4969077;28;20031;-67
2023/07/17 11:51:26;;;;;;;5.55;2.40;;;27.70;63.70;;;;;;4967585;28;20035;-67
2023/07/17 11:53:55;;;;;;;3.47;2.10;;;27.70;65.10;;;;;;4969664;28;20066;-67
2023/07/17 11:56:42;;;;;;;5.22;2.20;;;27.60;62.70;;;;;;4938109;28;20085;-67
2023/07/17 11:59:19;;;;;;;3.53;1.65;;;27.60;63.10;;;;;;4952380;28;20026;-66
2023/07/17 12:01:44;;;;;;;3.63;1.73;;;27.60;61.90;;;;;;4950867;28;20033;-66
2023/07/17 12:04:25;;;;;;;2.35;1.65;;;27.40;61.50;;;;;;4969442;28;20484;-67
2023/07/17 12:06:53;;;;;;;3.53;1.90;;;27.30;63.30;;;;;;4956069;28;20081;-66
2023/07/17 12:09:19;;;;;;;5.35;2.00;;;27.10;63.30;;;;;;4969225;28;20026;-67
2023/07/17 12:11:45;;;;;;;5.20;2.17;;;26.70;65.00;;;;;;4973168;28;20031;-66
2023/07/17 12:14:14;;;;;;;5.53;2.45;;;26.80;64.20;;;;;;4967582;28;20102;-66
2023/07/17 12:16:40;;;;;;;5.97;1.85;;;26.70;62.60;;;;;;4942018;28;20035;-68
2023/07/17 12:19:06;;;;;;;3.55;1.88;;;26.90;63.90;;;;;;4967805;28;20045;-67
2023/07/17 12:21:32;;;;;;;3.60;2.03;;;26.80;62.60;;;;;;4968302;28;20113;-66
2023/07/17 12:23:57;;;;;;;4.93;2.25;;;27.20;64.00;;;;;;4951216;28;20484;-67
2023/07/17 12:26:23;;;;;;;4.57;2.78;;;27.20;64.40;;;;;;4963605;28;20031;-67
2023/07/17 12:28:48;;;;;;;6.03;2.60;;;27.20;65.90;;;;;;4965788;28;20105;-67
2023/07/17 12:31:14;;;;;;;5.28;2.40;;;27.20;65.10;;;;;;4972217;28;20022;-67
2023/07/17 12:33:40;;;;;;;10.00;2.40;;;26.80;64.60;;;;;;4971438;28;20045;-67
2023/07/17 12:36:05;;;;;;;5.68;2.55;;;26.40;64.20;;;;;;4970027;28;20038;-67
2023/07/17 12:38:31;;;;;;;5.72;2.88;;;26.60;65.00;;;;;;4972889;28;20070;-67
2023/07/17 12:40:56;;;;;;;5.15;2.33;;;26.80;64.60;;;;;;4972241;28;20031;-66
2023/07/17 12:43:22;;;;;;;5.25;2.22;;;26.80;64.60;;;;;;4972700;28;20069;-66